CheckWX is a tool to help pilots better visualize weather data.  It is not intended as a substitute for an official pre-flight weather briefing.

20:34:54 UTC

FMSD TAF
Tôlanaro Airport
Tôlanaro, Comoros
TAF FMSD 032300Z 0400/0424 14012KT 9000 FEW010 SCT016 BKN033 PROB40 TEMPO 0400/0424 4000 SHRA

Apr-4@
00:00 UTC

Apr-4 @ 00:00 UTC

Apr-5@
00:00 UTC

Apr-5 @ 00:00 UTC

TAF FMSD 032300Z 0400/0424 14012KT 9000 FEW010 SCT016 BKN033
Wind
  • 140° at 12 KTS
Cloud Levels
  • Few at 1,000' AGL
  • Scattered at 1,600' AGL
  • Broken at 3,300' AGL

Apr-4@
00:00 UTC

Apr-4 @ 00:00 UTC

Apr-5@
00:00 UTC

Apr-5 @ 00:00 UTC

PROB40 TEMPO 0400/0424 4000 SHRA

Temporary - 40% Likelihood

Temporary - 40% Likelihood during this time.

Conditions
Showers, Rain
Cloud Levels